createdAt,value
2022-10-07T05:34:25.141Z,26.30
2022-10-07T05:37:25.240Z,22.08
2022-10-07T05:43:14.000Z,20.75
2022-10-07T05:48:38.041Z,22.85
2022-10-07T05:51:11.747Z,23.75
2022-10-07T05:53:41.284Z,22.55
2022-10-07T05:59:56.583Z,19.55
2022-10-07T06:07:09.583Z,20.02
2022-10-07T06:13:18.757Z,20.73
2022-10-07T06:15:47.346Z,18.67
2022-10-07T06:18:16.991Z,19.80
2022-10-07T06:20:55.782Z,18.88
2022-10-07T06:23:24.469Z,18.48
2022-10-07T06:26:05.674Z,18.13
2022-10-07T06:28:40.357Z,22.02
2022-10-07T06:31:28.014Z,22.73
2022-10-07T06:34:18.826Z,23.67
2022-10-07T06:37:20.953Z,23.95
2022-10-07T06:39:49.471Z,18.95
2022-10-07T06:42:21.291Z,18.60
2022-10-07T06:45:50.085Z,20.55
2022-10-07T06:51:23.732Z,19.33
2022-10-07T06:53:59.370Z,23.98
2022-10-07T06:56:35.239Z,22.25
2022-10-07T06:59:05.395Z,22.73
2022-10-07T07:01:49.641Z,22.17
2022-10-07T07:10:25.241Z,21.58
2022-10-07T07:13:06.445Z,22.35
2022-10-07T07:16:21.030Z,21.65
2022-10-07T07:19:28.039Z,20.83
2022-10-07T07:22:05.406Z,22.92
2022-10-07T07:25:07.059Z,19.65
2022-10-07T07:28:21.933Z,21.65
2022-10-07T07:31:41.674Z,16.35
2022-10-07T07:35:09.779Z,20.83
2022-10-07T07:41:35.121Z,17.13
2022-10-07T07:44:12.678Z,18.88
2022-10-07T07:50:33.203Z,22.42
2022-10-07T07:53:06.049Z,24.45
2022-10-07T07:55:42.383Z,23.38
2022-10-07T07:58:52.339Z,20.60
2022-10-07T08:01:39.017Z,18.67
2022-10-07T08:04:18.670Z,16.73
2022-10-07T08:07:17.065Z,21.67
2022-10-07T08:10:22.798Z,16.88
2022-10-07T08:12:53.833Z,18.20
2022-10-07T08:15:35.086Z,15.70
2022-10-07T08:18:15.473Z,19.10
2022-10-07T08:21:12.139Z,21.20
2022-10-07T08:24:32.115Z,18.75
2022-10-07T08:27:28.197Z,15.25
2022-10-07T08:39:31.494Z,19.13
2022-10-07T08:42:27.092Z,18.33
2022-10-07T08:45:47.245Z,18.27
2022-10-07T08:49:06.235Z,17.38
2022-10-07T08:52:36.741Z,15.15
2022-10-07T09:05:56.953Z,17.92
2022-10-07T09:09:07.963Z,13.65
2022-10-07T09:12:26.704Z,15.57
2022-10-07T09:15:04.452Z,18.52
2022-10-07T09:27:43.718Z,17.83
2022-10-07T09:30:21.273Z,20.83
2022-10-07T09:33:03.279Z,15.80
2022-10-07T09:35:45.865Z,20.00
2022-10-07T09:38:52.862Z,16.83
2022-10-07T09:41:53.842Z,18.40
2022-10-07T09:45:12.854Z,18.42
2022-10-07T09:47:57.880Z,18.95
2022-10-07T09:50:57.678Z,17.60
2022-10-07T10:31:17.309Z,15.07
2022-10-07T10:34:30.375Z,17.95
2022-10-07T10:37:47.306Z,13.10
2022-10-07T12:11:17.892Z,10.80
2022-10-07T13:30:34.863Z,15.13
2022-10-07T13:36:32.439Z,11.98
2022-10-07T13:39:25.391Z,15.25
2022-10-07T13:41:57.236Z,14.07
2022-10-07T13:44:32.554Z,7.82
2022-10-07T13:47:16.755Z,11.30
2022-10-07T13:49:56.203Z,16.90
2022-10-07T13:58:33.530Z,10.82
2022-10-07T14:01:28.078Z,16.70
2022-10-07T14:04:41.277Z,14.93
2022-10-07T14:07:20.426Z,12.05
2022-10-07T14:09:52.243Z,10.45
2022-10-07T14:12:28.685Z,12.82
2022-10-07T14:15:14.826Z,10.70
2022-10-07T14:22:05.723Z,14.23
2022-10-07T14:48:31.982Z,10.55
2022-10-07T15:00:25.803Z,13.18
2022-10-07T15:03:21.828Z,16.27
2022-10-07T15:06:19.119Z,12.23
2022-10-07T18:47:37.864Z,10.80
2022-10-07T19:01:03.145Z,12.68
2022-10-07T19:03:36.724Z,12.32
2022-10-07T19:06:46.082Z,10.00
2022-10-07T19:16:27.564Z,10.88
2022-10-07T19:22:31.430Z,14.98
2022-10-07T19:26:00.782Z,13.98
2022-10-07T19:36:31.089Z,12.88
2022-10-07T19:39:33.393Z,13.18
2022-10-07T19:47:25.636Z,10.13
2022-10-07T19:49:54.277Z,12.25
2022-10-07T19:52:29.088Z,12.80
2022-10-07T20:00:26.288Z,14.82
2022-10-07T21:29:21.176Z,10.38
2022-10-07T21:52:14.974Z,10.98
2022-10-07T23:25:14.110Z,13.73
2022-10-07T23:28:43.709Z,15.75
